Time;durP1;ratioP1;P1;durP2;ratioP2;P2;SDS_P1;SDS_P2;PMS_P1;PMS_P2;Temp;Humidity;BMP_temperature;BMP_pressure;BME280_temperature;BME280_humidity;BME280_pressure;Samples;Min_cycle;Max_cycle;Signal;HPM_P1;HPM_P2
2022/07/07 00:00:47;;;;;;;3.85;1.70;;;;;;;;;;4991870;28;20030;-72
2022/07/07 00:03:12;;;;;;;4.13;1.50;;;;;;;;;;4991594;28;20031;-73
2022/07/07 00:05:39;;;;;;;5.20;1.90;;;;;;;;;;4991330;28;20034;-73
2022/07/07 00:08:05;;;;;;;6.75;1.80;;;;;;;;;;4991638;28;20105;-73
2022/07/07 00:10:30;;;;;;;3.90;1.67;;;;;;;;;;4991241;28;20593;-72
2022/07/07 00:12:55;;;;;;;5.60;1.73;;;;;;;;;;4991578;28;20029;-72
2022/07/07 00:15:21;;;;;;;8.68;1.75;;;;;;;;;;4991450;28;20030;-72
2022/07/07 00:17:46;;;;;;;4.35;2.00;;;;;;;;;;4991420;28;20034;-73
2022/07/07 00:20:12;;;;;;;5.47;1.70;;;;;;;;;;4991546;28;20080;-73
2022/07/07 00:22:37;;;;;;;4.63;1.80;;;;;;;;;;4991242;28;20391;-73
2022/07/07 00:25:05;;;;;;;7.40;1.90;;;;;;;;;;4990885;28;20034;-73
2022/07/07 00:27:30;;;;;;;5.95;1.70;;;;;;;;;;4973811;28;20058;-73
2022/07/07 00:29:55;;;;;;;6.18;1.60;;;;;;;;;;4991371;28;20465;-73
2022/07/07 00:32:21;;;;;;;5.72;2.10;;;;;;;;;;4991290;28;20030;-77
2022/07/07 00:34:46;;;;;;;6.30;1.50;;;;;;;;;;4991184;28;20026;-76
2022/07/07 00:37:12;;;;;;;4.70;1.60;;;;;;;;;;4990984;28;20072;-76
2022/07/07 00:39:37;;;;;;;5.53;1.60;;;;;;;;;;4990859;28;20049;-77
2022/07/07 00:42:03;;;;;;;7.40;2.05;;;;;;;;;;4990902;28;20033;-76
2022/07/07 00:44:28;;;;;;;4.40;1.80;;;;;;;;;;4990923;28;20030;-76
2022/07/07 00:46:54;;;;;;;4.95;1.60;;;;;;;;;;4991016;28;20037;-76
2022/07/07 00:49:21;;;;;;;4.70;1.80;;;;;;;;;;4991160;28;20430;-76
2022/07/07 00:51:47;;;;;;;5.57;1.52;;;;;;;;;;4990822;28;20101;-76
2022/07/07 00:54:12;;;;;;;4.57;1.70;;;;;;;;;;4991045;28;20022;-76
2022/07/07 00:56:39;;;;;;;6.15;1.75;;;;;;;;;;4990429;28;20050;-76
2022/07/07 00:59:08;;;;;;;3.03;1.65;;;;;;;;;;4990933;28;20053;-76
2022/07/07 01:01:41;;;;;;;4.55;1.80;;;;;;;;;;4990767;28;20022;-76
2022/07/07 01:04:12;;;;;;;4.45;1.55;;;;;;;;;;4990928;28;20034;-75
2022/07/07 01:06:40;;;;;;;4.95;1.58;;;;;;;;;;4990357;28;20089;-74
2022/07/07 01:09:06;;;;;;;5.63;1.70;;;;;;;;;;4990874;28;20108;-76
2022/07/07 01:11:52;;;;;;;4.65;1.77;;;;;;;;;;4990811;28;20084;-76
2022/07/07 01:14:18;;;;;;;5.50;1.77;;;;;;;;;;4990610;28;20031;-75
2022/07/07 01:16:45;;;;;;;5.22;1.60;;;;;;;;;;4990520;28;20656;-75
2022/07/07 01:19:10;;;;;;;3.50;1.58;;;;;;;;;;4990584;28;20538;-75
2022/07/07 01:21:46;;;;;;;4.30;1.63;;;;;;;;;;4992510;28;20034;-76
2022/07/07 01:24:11;;;;;;;2.97;1.60;;;;;;;;;;4994811;28;20023;-76
2022/07/07 01:26:39;;;;;;;3.90;1.70;;;;;;;;;;4994425;28;20032;-75
2022/07/07 01:29:05;;;;;;;5.72;1.88;;;;;;;;;;4994561;28;20037;-75
2022/07/07 01:31:30;;;;;;;5.18;1.77;;;;;;;;;;4994568;28;20026;-75
2022/07/07 01:33:55;;;;;;;3.85;1.63;;;;;;;;;;4994427;28;20026;-75
2022/07/07 01:36:21;;;;;;;5.78;2.05;;;;;;;;;;4994151;28;20026;-74
2022/07/07 01:38:46;;;;;;;3.70;1.60;;;;;;;;;;4976654;28;20026;-76
2022/07/07 01:41:12;;;;;;;5.25;1.48;;;;;;;;;;4994403;28;20023;-76
2022/07/07 01:43:37;;;;;;;5.18;1.70;;;;;;;;;;4994283;28;20094;-75
2022/07/07 01:46:02;;;;;;;5.82;1.60;;;;;;;;;;4960327;28;20110;-74
2022/07/07 01:48:28;;;;;;;4.40;1.70;;;;;;;;;;4994110;28;20026;-76
2022/07/07 01:50:53;;;;;;;5.32;1.83;;;;;;;;;;4993988;28;20058;-75
2022/07/07 01:53:19;;;;;;;4.43;1.75;;;;;;;;;;4993840;28;20026;-76
2022/07/07 01:55:44;;;;;;;5.72;1.70;;;;;;;;;;4976127;28;20114;-75
2022/07/07 01:58:10;;;;;;;6.57;1.73;;;;;;;;;;4994226;28;20026;-75
2022/07/07 02:00:35;;;;;;;7.55;1.90;;;;;;;;;;4994058;28;20029;-75
2022/07/07 02:03:00;;;;;;;5.13;1.75;;;;;;;;;;4993881;28;20031;-75
2022/07/07 02:05:26;;;;;;;5.35;1.80;;;;;;;;;;4993776;28;20037;-75
2022/07/07 02:07:51;;;;;;;7.53;1.88;;;;;;;;;;4976225;28;20022;-75
2022/07/07 02:11:12;;;;;;;9.00;1.80;;;;;;;;;;4993644;28;20026;-76
2022/07/07 02:13:02;;;;;;;5.65;1.90;;;;;;;;;;4993584;28;20041;-76
2022/07/07 02:15:27;;;;;;;7.70;1.90;;;;;;;;;;4993505;28;20031;-76
2022/07/07 02:17:53;;;;;;;5.20;1.65;;;;;;;;;;4993803;28;20026;-74
2022/07/07 02:20:18;;;;;;;7.22;1.75;;;;;;;;;;4993654;28;20026;-76
2022/07/07 02:22:44;;;;;;;5.18;1.95;;;;;;;;;;4993365;28;20031;-76
2022/07/07 02:25:09;;;;;;;3.80;1.60;;;;;;;;;;4993398;28;20026;-76
2022/07/07 02:27:35;;;;;;;5.32;1.70;;;;;;;;;;4993123;28;20065;-74
2022/07/07 02:30:00;;;;;;;4.65;1.80;;;;;;;;;;4993421;28;20053;-75
2022/07/07 02:32:26;;;;;;;7.63;1.92;;;;;;;;;;4993267;28;20105;-75
2022/07/07 02:34:51;;;;;;;7.45;1.80;;;;;;;;;;4993407;28;20575;-76
2022/07/07 02:37:16;;;;;;;8.05;1.70;;;;;;;;;;4993297;28;20034;-76
2022/07/07 02:39:42;;;;;;;6.43;1.63;;;;;;;;;;4993195;28;20030;-76
2022/07/07 02:42:07;;;;;;;4.47;1.80;;;;;;;;;;4993203;28;20031;-76
2022/07/07 02:44:32;;;;;;;6.13;1.80;;;;;;;;;;4993050;28;20389;-76
2022/07/07 02:46:58;;;;;;;5.43;1.98;;;;;;;;;;4992946;28;20081;-76
2022/07/07 02:49:23;;;;;;;5.95;1.95;;;;;;;;;;4993170;28;20019;-76
2022/07/07 02:51:49;;;;;;;6.30;1.83;;;;;;;;;;4993092;28;20566;-76
2022/07/07 02:54:14;;;;;;;7.00;1.75;;;;;;;;;;4992989;28;20033;-75
2022/07/07 02:56:39;;;;;;;4.47;1.80;;;;;;;;;;4974968;28;20107;-76
2022/07/07 02:59:05;;;;;;;6.50;1.90;;;;;;;;;;4992686;28;20030;-76
2022/07/07 03:01:30;;;;;;;4.88;1.88;;;;;;;;;;4992748;28;20073;-75
2022/07/07 03:03:56;;;;;;;7.63;2.20;;;;;;;;;;4992880;28;20019;-75
2022/07/07 03:06:21;;;;;;;8.13;2.00;;;;;;;;;;4992626;28;20030;-75
2022/07/07 03:08:47;;;;;;;5.82;2.05;;;;;;;;;;4992767;28;20031;-75
2022/07/07 03:11:12;;;;;;;8.10;1.90;;;;;;;;;;4975267;28;20014;-76
2022/07/07 03:13:38;;;;;;;7.50;2.08;;;;;;;;;;4992503;28;20018;-75
2022/07/07 03:16:03;;;;;;;6.05;2.10;;;;;;;;;;4992423;28;20114;-76
2022/07/07 03:18:29;;;;;;;8.98;1.90;;;;;;;;;;4992514;28;20029;-72
2022/07/07 03:20:54;;;;;;;5.40;1.70;;;;;;;;;;4992619;28;20030;-74
2022/07/07 03:23:20;;;;;;;4.82;1.60;;;;;;;;;;4992307;28;20014;-72
2022/07/07 03:25:45;;;;;;;4.25;1.92;;;;;;;;;;4992197;28;20034;-74
2022/07/07 03:28:10;;;;;;;4.75;1.80;;;;;;;;;;4992494;28;20105;-73
2022/07/07 03:30:36;;;;;;;4.53;1.83;;;;;;;;;;4992354;28;20057;-73
2022/07/07 03:33:01;;;;;;;5.10;2.00;;;;;;;;;;4974595;28;20117;-76
2022/07/07 03:35:27;;;;;;;6.75;2.05;;;;;;;;;;4992179;28;20501;-76
2022/07/07 03:37:52;;;;;;;5.72;1.85;;;;;;;;;;4991885;28;20018;-73
2022/07/07 03:40:17;;;;;;;4.03;1.70;;;;;;;;;;4992234;28;20026;-76
2022/07/07 03:42:43;;;;;;;7.10;1.80;;;;;;;;;;4992166;28;20018;-73
2022/07/07 03:45:08;;;;;;;4.80;1.85;;;;;;;;;;4991468;28;20019;-72
2022/07/07 03:47:34;;;;;;;6.75;1.90;;;;;;;;;;4991900;28;20035;-73
2022/07/07 03:49:59;;;;;;;6.32;2.08;;;;;;;;;;4991956;28;20073;-76
2022/07/07 03:52:25;;;;;;;6.10;1.92;;;;;;;;;;4992005;28;20054;-76
2022/07/07 03:54:50;;;;;;;7.32;1.92;;;;;;;;;;4991811;28;20696;-76
2022/07/07 03:57:16;;;;;;;6.65;2.03;;;;;;;;;;4991290;28;20038;-76
2022/07/07 03:59:41;;;;;;;6.60;1.98;;;;;;;;;;4991887;28;20068;-76
2022/07/07 04:02:07;;;;;;;6.57;1.85;;;;;;;;;;4991934;28;20409;-77
2022/07/07 04:04:32;;;;;;;7.43;2.00;;;;;;;;;;4991719;28;20161;-76
2022/07/07 04:06:58;;;;;;;6.07;1.90;;;;;;;;;;4991352;28;20054;-74
2022/07/07 04:09:23;;;;;;;7.20;2.00;;;;;;;;;;4991575;28;20509;-75
2022/07/07 04:11:49;;;;;;;5.88;2.08;;;;;;;;;;4991445;28;20022;-76
2022/07/07 04:14:14;;;;;;;12.40;2.20;;;;;;;;;;4991462;28;20221;-74
2022/07/07 04:16:39;;;;;;;6.10;1.90;;;;;;;;;;4991358;28;20037;-75
2022/07/07 04:19:05;;;;;;;10.63;2.08;;;;;;;;;;4991581;28;20127;-76
2022/07/07 04:21:30;;;;;;;8.32;2.10;;;;;;;;;;4991439;28;20070;-76
2022/07/07 04:23:56;;;;;;;5.35;2.30;;;;;;;;;;4991188;28;20018;-76
2022/07/07 04:26:21;;;;;;;8.93;2.38;;;;;;;;;;4990966;28;20109;-75
2022/07/07 04:28:46;;;;;;;6.65;2.00;;;;;;;;;;4991168;28;20046;-75
2022/07/07 04:31:12;;;;;;;8.30;2.10;;;;;;;;;;4991281;28;20070;-76
2022/07/07 04:33:37;;;;;;;3.90;2.05;;;;;;;;;;4991315;28;20031;-76
2022/07/07 04:36:03;;;;;;;6.63;2.30;;;;;;;;;;4973800;28;20030;-76
2022/07/07 04:38:28;;;;;;;6.40;2.20;;;;;;;;;;4990842;28;20117;-76
2022/07/07 04:40:54;;;;;;;7.85;2.15;;;;;;;;;;4991138;28;20398;-77
2022/07/07 04:43:19;;;;;;;5.97;2.35;;;;;;;;;;4991110;28;20038;-76
2022/07/07 04:45:44;;;;;;;6.80;2.28;;;;;;;;;;4990938;28;20041;-77
2022/07/07 04:48:10;;;;;;;6.72;2.00;;;;;;;;;;4990875;28;20097;-75
2022/07/07 04:50:35;;;;;;;6.72;2.00;;;;;;;;;;4990938;28;20577;-76
2022/07/07 04:53:01;;;;;;;7.47;2.10;;;;;;;;;;4990970;28;20053;-75
2022/07/07 04:55:26;;;;;;;10.15;2.22;;;;;;;;;;4989913;28;20114;-75
2022/07/07 04:57:51;;;;;;;8.27;2.25;;;;;;;;;;4990565;28;20034;-76
2022/07/07 05:00:17;;;;;;;8.68;2.35;;;;;;;;;;4990864;28;20027;-75
2022/07/07 05:02:42;;;;;;;7.50;2.30;;;;;;;;;;4990649;28;20077;-75
2022/07/07 05:05:08;;;;;;;8.38;2.50;;;;;;;;;;4973301;28;20030;-75
2022/07/07 05:07:34;;;;;;;7.13;2.22;;;;;;;;;;4990586;28;20696;-75
2022/07/07 05:09:59;;;;;;;7.72;2.35;;;;;;;;;;4990900;28;20026;-74
2022/07/07 05:12:25;;;;;;;5.57;2.17;;;;;;;;;;4990866;28;20035;-76
2022/07/07 05:14:50;;;;;;;7.50;2.08;;;;;;;;;;4990693;28;20038;-75
2022/07/07 05:17:16;;;;;;;9.07;2.47;;;;;;;;;;4972984;28;20470;-75
2022/07/07 05:19:41;;;;;;;11.07;2.40;;;;;;;;;;4990679;28;20116;-76
2022/07/07 05:22:07;;;;;;;9.82;2.33;;;;;;;;;;4990526;28;20033;-73
2022/07/07 05:24:33;;;;;;;6.60;2.85;;;;;;;;;;4990690;28;20022;-73
2022/07/07 05:26:58;;;;;;;8.00;2.42;;;;;;;;;;4990485;28;20031;-73
2022/07/07 05:29:24;;;;;;;11.73;2.60;;;;;;;;;;4990688;28;20381;-74
2022/07/07 05:31:49;;;;;;;8.23;2.42;;;;;;;;;;4990515;28;20030;-75
2022/07/07 05:34:15;;;;;;;7.88;2.20;;;;;;;;;;4972883;28;20038;-75
2022/07/07 05:36:40;;;;;;;11.13;2.88;;;;;;;;;;4990274;28;20494;-74
2022/07/07 05:39:06;;;;;;;10.77;2.45;;;;;;;;;;4990198;28;20023;-74
2022/07/07 05:41:31;;;;;;;6.50;2.30;;;;;;;;;;4972889;28;20042;-74
2022/07/07 05:43:57;;;;;;;5.47;2.30;;;;;;;;;;4990466;28;20441;-73
2022/07/07 05:46:22;;;;;;;8.23;2.25;;;;;;;;;;4990506;28;20105;-74
2022/07/07 05:48:48;;;;;;;11.50;2.70;;;;;;;;;;4990326;28;20022;-73
2022/07/07 05:51:13;;;;;;;6.88;2.40;;;;;;;;;;4990430;28;20026;-75
2022/07/07 05:53:39;;;;;;;5.88;2.30;;;;;;;;;;4990113;28;20031;-74
2022/07/07 05:56:04;;;;;;;9.18;2.58;;;;;;;;;;4990087;28;20105;-73
2022/07/07 05:58:30;;;;;;;5.68;2.20;;;;;;;;;;4989968;28;20041;-75
2022/07/07 06:00:55;;;;;;;8.90;2.70;;;;;;;;;;4990361;28;20606;-73
2022/07/07 06:03:21;;;;;;;11.00;2.63;;;;;;;;;;4990408;28;20080;-74
2022/07/07 06:05:47;;;;;;;6.75;2.58;;;;;;;;;;4990059;28;20044;-73
2022/07/07 06:08:12;;;;;;;9.10;2.50;;;;;;;;;;4992589;28;20019;-73
2022/07/07 06:10:38;;;;;;;4.40;2.15;;;;;;;;;;4993698;28;20398;-73
2022/07/07 06:13:04;;;;;;;8.05;2.40;;;;;;;;;;4993622;28;20035;-73
2022/07/07 06:15:33;;;;;;;8.02;2.17;;;;;;;;;;4993547;28;20026;-74
2022/07/07 06:18:07;;;;;;;8.65;2.20;;;;;;;;;;4993585;28;20058;-74
2022/07/07 06:20:32;;;;;;;8.18;2.55;;;;;;;;;;4993794;28;20026;-73
2022/07/07 06:22:58;;;;;;;6.43;2.17;;;;;;;;;;4993431;28;20101;-74
2022/07/07 06:25:26;;;;;;;8.10;2.30;;;;;;;;;;4993540;28;20031;-74
2022/07/07 06:27:51;;;;;;;9.35;2.50;;;;;;;;;;4993285;28;20066;-72
2022/07/07 06:30:17;;;;;;;12.48;2.88;;;;;;;;;;4993333;28;20108;-74
2022/07/07 06:32:42;;;;;;;7.72;2.45;;;;;;;;;;4993511;28;20629;-73
2022/07/07 06:35:08;;;;;;;8.15;2.60;;;;;;;;;;4993540;28;20022;-73
2022/07/07 06:37:34;;;;;;;10.18;2.33;;;;;;;;;;4992861;28;20537;-73
2022/07/07 06:39:59;;;;;;;4.95;1.85;;;;;;;;;;4993332;28;20034;-72
2022/07/07 06:42:25;;;;;;;10.13;2.33;;;;;;;;;;4993250;28;20022;-72
2022/07/07 06:44:51;;;;;;;4.63;2.20;;;;;;;;;;4992958;28;20096;-73
2022/07/07 06:47:16;;;;;;;8.00;2.40;;;;;;;;;;4992899;28;20485;-73
2022/07/07 06:49:42;;;;;;;7.22;2.22;;;;;;;;;;4993062;28;20022;-73
2022/07/07 06:52:08;;;;;;;5.68;2.45;;;;;;;;;;4992991;28;20034;-72
2022/07/07 06:54:33;;;;;;;7.25;2.70;;;;;;;;;;4993010;28;20034;-72
2022/07/07 06:56:58;;;;;;;7.93;2.50;;;;;;;;;;4992859;28;20134;-73
2022/07/07 06:59:24;;;;;;;6.50;2.70;;;;;;;;;;4993267;28;20352;-72
2022/07/07 07:01:49;;;;;;;5.03;2.55;;;;;;;;;;4992766;28;20027;-73
2022/07/07 07:04:15;;;;;;;6.72;2.70;;;;;;;;;;4975088;28;20034;-72
2022/07/07 07:06:41;;;;;;;6.32;2.63;;;;;;;;;;4992670;28;20026;-74
2022/07/07 07:09:06;;;;;;;10.20;2.83;;;;;;;;;;4992383;28;20463;-76
2022/07/07 07:11:32;;;;;;;7.05;2.60;;;;;;;;;;4992698;28;20106;-75
2022/07/07 07:13:58;;;;;;;6.30;2.55;;;;;;;;;;4975272;28;20026;-76
2022/07/07 07:16:24;;;;;;;6.57;2.63;;;;;;;;;;4992704;28;20079;-76
2022/07/07 07:18:49;;;;;;;8.38;2.55;;;;;;;;;;4991466;28;20053;-76
2022/07/07 07:21:15;;;;;;;6.13;2.28;;;;;;;;;;4992445;28;20109;-75
2022/07/07 07:23:41;;;;;;;4.03;2.33;;;;;;;;;;4992285;28;20390;-76
2022/07/07 07:26:07;;;;;;;7.55;2.40;;;;;;;;;;4992455;28;20030;-76
2022/07/07 07:28:34;;;;;;;10.57;2.60;;;;;;;;;;4992287;28;20082;-75
2022/07/07 07:31:00;;;;;;;8.30;2.47;;;;;;;;;;4992448;28;20030;-76
2022/07/07 07:33:27;;;;;;;6.82;2.78;;;;;;;;;;4992523;28;20026;-75
2022/07/07 07:35:52;;;;;;;9.50;2.65;;;;;;;;;;4992147;28;20547;-75
2022/07/07 07:38:18;;;;;;;10.82;2.80;;;;;;;;;;4991778;28;20153;-75
2022/07/07 07:40:44;;;;;;;7.82;2.60;;;;;;;;;;4991945;28;20026;-73
2022/07/07 07:43:09;;;;;;;7.07;2.60;;;;;;;;;;4992146;28;20098;-73
2022/07/07 07:45:35;;;;;;;8.00;2.95;;;;;;;;;;4992107;28;20517;-75
2022/07/07 07:48:04;;;;;;;5.57;2.80;;;;;;;;;;4991896;28;20038;-75
2022/07/07 07:50:30;;;;;;;7.47;2.70;;;;;;;;;;4992042;28;20065;-75
2022/07/07 07:52:56;;;;;;;9.10;2.70;;;;;;;;;;4991782;28;20037;-75
2022/07/07 07:55:22;;;;;;;6.55;2.80;;;;;;;;;;4991768;28;20030;-75
2022/07/07 07:57:48;;;;;;;8.07;3.00;;;;;;;;;;4991348;28;20831;-75
2022/07/07 08:00:16;;;;;;;8.80;2.97;;;;;;;;;;4991714;28;20112;-73
2022/07/07 08:02:43;;;;;;;6.50;2.75;;;;;;;;;;4991641;28;20136;-75
2022/07/07 08:05:12;;;;;;;6.85;2.80;;;;;;;;;;4991770;28;20023;-75
2022/07/07 08:07:39;;;;;;;7.35;2.90;;;;;;;;;;4991404;28;20019;-75
2022/07/07 08:10:05;;;;;;;8.48;2.92;;;;;;;;;;4974167;28;20018;-76
2022/07/07 08:12:30;;;;;;;5.80;2.30;;;;;;;;;;4991405;28;20490;-76
2022/07/07 08:14:56;;;;;;;6.05;2.60;;;;;;;;;;4991365;28;20033;-73
2022/07/07 08:17:21;;;;;;;5.78;2.22;;;;;;;;;;4991556;28;20042;-74
2022/07/07 08:19:47;;;;;;;10.85;2.20;;;;;;;;;;4991261;28;20030;-73
2022/07/07 08:22:12;;;;;;;5.15;2.08;;;;;;;;;;4991487;28;20466;-74
2022/07/07 08:24:39;;;;;;;5.10;2.00;;;;;;;;;;4991412;28;20077;-76
2022/07/07 08:27:05;;;;;;;6.70;2.60;;;;;;;;;;4973761;28;20065;-75
2022/07/07 08:29:30;;;;;;;5.60;2.50;;;;;;;;;;4973523;28;20053;-75
2022/07/07 08:31:56;;;;;;;6.60;2.38;;;;;;;;;;4991185;28;20027;-75
2022/07/07 08:34:22;;;;;;;4.90;1.98;;;;;;;;;;4990951;28;20030;-75
2022/07/07 08:36:48;;;;;;;5.70;1.95;;;;;;;;;;4991565;28;20045;-75
2022/07/07 08:39:14;;;;;;;4.85;1.90;;;;;;;;;;4990997;28;20034;-74
2022/07/07 08:41:40;;;;;;;7.35;2.13;;;;;;;;;;4991199;28;20383;-74
2022/07/07 08:44:06;;;;;;;5.32;2.40;;;;;;;;;;4991047;28;20121;-74
2022/07/07 08:46:31;;;;;;;7.22;2.20;;;;;;;;;;4990898;28;20117;-74
2022/07/07 08:48:57;;;;;;;3.72;2.25;;;;;;;;;;4990635;28;20470;-73
2022/07/07 08:51:23;;;;;;;6.28;2.30;;;;;;;;;;4990661;28;20084;-73
2022/07/07 08:53:48;;;;;;;4.25;2.20;;;;;;;;;;4991038;28;20085;-74
2022/07/07 08:56:18;;;;;;;9.23;2.10;;;;;;;;;;4990834;28;20046;-73
2022/07/07 08:58:43;;;;;;;5.75;2.40;;;;;;;;;;4990697;28;20026;-73
2022/07/07 09:01:09;;;;;;;7.68;2.38;;;;;;;;;;4990965;28;20554;-74
2022/07/07 09:03:35;;;;;;;7.65;2.20;;;;;;;;;;4990615;28;20072;-74
2022/07/07 09:06:00;;;;;;;4.85;2.45;;;;;;;;;;4990630;28;20056;-73
2022/07/07 09:08:28;;;;;;;7.50;2.50;;;;;;;;;;4990408;28;20038;-74
2022/07/07 09:10:54;;;;;;;5.97;2.10;;;;;;;;;;4990885;28;20069;-77
2022/07/07 09:13:32;;;;;;;4.80;2.00;;;;;;;;;;4990891;28;20031;-73
2022/07/07 09:16:04;;;;;;;5.45;1.80;;;;;;;;;;4990659;28;20045;-73
2022/07/07 09:18:37;;;;;;;7.70;2.22;;;;;;;;;;4990545;28;20029;-74
2022/07/07 09:21:06;;;;;;;4.82;2.10;;;;;;;;;;4990501;28;20070;-76
2022/07/07 09:23:32;;;;;;;4.72;1.80;;;;;;;;;;4990551;28;20038;-75
2022/07/07 09:26:00;;;;;;;5.28;1.95;;;;;;;;;;4990516;28;20062;-74
2022/07/07 09:28:26;;;;;;;4.63;1.50;;;;;;;;;;4990351;28;20038;-76
2022/07/07 09:30:52;;;;;;;4.65;1.83;;;;;;;;;;4990717;28;20010;-73
2022/07/07 09:33:25;;;;;;;6.75;2.00;;;;;;;;;;4990641;28;20467;-76
2022/07/07 09:38:38;;;;;;;7.85;1.70;;;;;;;;;;4990255;28;20145;-74
2022/07/07 09:41:08;;;;;;;3.17;1.60;;;;;;;;;;4990272;28;20030;-75
2022/07/07 09:43:53;;;;;;;7.93;1.80;;;;;;;;;;4994246;28;20116;-73
2022/07/07 09:46:21;;;;;;;4.93;1.75;;;;;;;;;;4993741;28;20041;-72
2022/07/07 09:48:49;;;;;;;12.27;1.85;;;;;;;;;;4994336;28;20030;-75
2022/07/07 09:51:24;;;;;;;4.88;1.80;;;;;;;;;;4994429;28;20029;-75
2022/07/07 09:53:55;;;;;;;7.35;1.80;;;;;;;;;;4994131;28;20050;-73
2022/07/07 09:56:22;;;;;;;4.60;1.90;;;;;;;;;;4993890;28;20044;-72
2022/07/07 09:58:47;;;;;;;5.95;1.95;;;;;;;;;;4975946;28;20053;-73
2022/07/07 10:01:14;;;;;;;4.93;1.80;;;;;;;;;;4994057;28;20418;-74
2022/07/07 10:03:42;;;;;;;9.25;1.75;;;;;;;;;;4993873;28;20031;-73
2022/07/07 10:06:09;;;;;;;3.97;1.60;;;;;;;;;;4994008;28;20486;-73
2022/07/07 10:08:38;;;;;;;4.40;1.50;;;;;;;;;;4993713;28;20054;-73
2022/07/07 10:11:05;;;;;;;4.00;1.60;;;;;;;;;;4993928;28;20478;-72
2022/07/07 10:13:33;;;;;;;4.20;1.70;;;;;;;;;;4993881;28;20305;-73
2022/07/07 10:15:58;;;;;;;5.10;1.70;;;;;;;;;;4993621;28;20030;-73
2022/07/07 10:18:24;;;;;;;7.07;1.73;;;;;;;;;;4993764;28;20109;-75
2022/07/07 10:20:50;;;;;;;5.93;1.60;;;;;;;;;;4993758;28;20449;-75
2022/07/07 10:23:16;;;;;;;5.60;1.60;;;;;;;;;;4993590;28;20038;-72
2022/07/07 10:25:42;;;;;;;6.30;1.60;;;;;;;;;;4993564;28;20434;-73
2022/07/07 10:28:07;;;;;;;4.80;1.48;;;;;;;;;;4993507;28;20033;-75
2022/07/07 10:30:33;;;;;;;6.05;1.70;;;;;;;;;;4975868;28;20033;-76
2022/07/07 10:32:59;;;;;;;3.40;1.58;;;;;;;;;;4993335;28;20540;-76
2022/07/07 10:35:25;;;;;;;3.72;1.65;;;;;;;;;;4993552;28;20034;-76
2022/07/07 10:37:54;;;;;;;3.45;1.58;;;;;;;;;;4993342;28;20470;-76
2022/07/07 10:40:23;;;;;;;4.93;1.80;;;;;;;;;;4993311;28;20027;-76
2022/07/07 10:43:33;;;;;;;3.72;1.60;;;;;;;;;;4993472;28;20030;-77
2022/07/07 10:46:02;;;;;;;6.25;1.92;;;;;;;;;;4993215;28;20438;-76
2022/07/07 10:48:42;;;;;;;5.85;1.70;;;;;;;;;;4993226;28;20026;-76
2022/07/07 10:51:14;;;;;;;5.63;1.33;;;;;;;;;;4993053;28;20054;-75
2022/07/07 10:54:06;;;;;;;3.58;1.35;;;;;;;;;;4992913;28;20034;-75
2022/07/07 10:56:53;;;;;;;3.80;1.23;;;;;;;;;;4992946;28;20400;-75
2022/07/07 10:59:20;;;;;;;3.80;1.30;;;;;;;;;;4992898;28;20041;-75
2022/07/07 11:02:01;;;;;;;3.20;1.15;;;;;;;;;;4993026;28;20026;-75
2022/07/07 11:04:42;;;;;;;6.50;1.30;;;;;;;;;;4992971;28;20018;-75
2022/07/07 11:07:11;;;;;;;3.53;1.25;;;;;;;;;;4992420;28;20030;-76
2022/07/07 11:10:03;;;;;;;4.53;1.00;;;;;;;;;;4992640;28;20509;-75
2022/07/07 11:12:37;;;;;;;3.30;1.20;;;;;;;;;;4992784;28;20041;-74
2022/07/07 11:15:15;;;;;;;2.70;1.27;;;;;;;;;;4975290;28;20042;-75
2022/07/07 11:18:00;;;;;;;6.68;1.40;;;;;;;;;;4992678;28;20050;-75
2022/07/07 11:20:29;;;;;;;3.50;1.20;;;;;;;;;;4974230;28;20456;-76
2022/07/07 11:23:06;;;;;;;3.55;1.05;;;;;;;;;;4992447;28;20105;-76
2022/07/07 11:25:32;;;;;;;2.95;1.20;;;;;;;;;;4992334;28;20110;-75
2022/07/07 11:27:58;;;;;;;4.45;1.25;;;;;;;;;;4992456;28;20058;-75
2022/07/07 11:30:24;;;;;;;4.28;1.10;;;;;;;;;;4992402;28;20162;-74
2022/07/07 11:32:50;;;;;;;4.18;1.20;;;;;;;;;;4992516;28;20054;-75
2022/07/07 11:35:16;;;;;;;7.88;1.17;;;;;;;;;;4992520;28;20038;-76
2022/07/07 11:37:44;;;;;;;4.88;1.60;;;;;;;;;;4992184;28;20026;-74
2022/07/07 11:40:33;;;;;;;5.20;1.10;;;;;;;;;;4991961;28;20044;-77
2022/07/07 11:43:03;;;;;;;4.35;1.23;;;;;;;;;;4991993;28;20019;-75
2022/07/07 11:45:31;;;;;;;9.60;1.30;;;;;;;;;;4991958;28;20076;-75
2022/07/07 11:47:58;;;;;;;2.90;1.40;;;;;;;;;;4992764;28;20031;-74
2022/07/07 11:50:24;;;;;;;7.20;1.40;;;;;;;;;;4992129;28;20026;-74
2022/07/07 11:52:54;;;;;;;4.20;1.33;;;;;;;;;;4991769;28;20397;-73
2022/07/07 11:55:21;;;;;;;3.47;1.10;;;;;;;;;;4992128;28;20042;-75
2022/07/07 11:57:57;;;;;;;4.45;1.40;;;;;;;;;;4991849;28;20046;-73
2022/07/07 12:00:26;;;;;;;2.28;1.10;;;;;;;;;;4991572;28;20077;-73
2022/07/07 12:02:55;;;;;;;4.95;1.10;;;;;;;;;;4991744;28;20138;-73
2022/07/07 12:05:26;;;;;;;3.35;1.38;;;;;;;;;;4991284;28;20034;-74
2022/07/07 12:08:00;;;;;;;3.58;1.20;;;;;;;;;;4991883;28;20088;-74
2022/07/07 12:10:32;;;;;;;3.92;1.27;;;;;;;;;;4991479;28;20096;-73
2022/07/07 12:13:00;;;;;;;4.50;1.13;;;;;;;;;;4991646;28;20548;-75
2022/07/07 12:15:34;;;;;;;3.80;1.33;;;;;;;;;;4991598;28;20064;-74
2022/07/07 12:18:00;;;;;;;4.80;1.33;;;;;;;;;;4991479;28;20084;-73
2022/07/07 12:20:26;;;;;;;6.40;1.48;;;;;;;;;;4991210;28;20029;-74
2022/07/07 12:22:59;;;;;;;3.83;1.40;;;;;;;;;;4991307;28;20038;-74
2022/07/07 12:25:27;;;;;;;2.53;1.10;;;;;;;;;;4991549;28;20042;-76
2022/07/07 12:27:56;;;;;;;2.60;1.20;;;;;;;;;;4991229;28;20022;-74
2022/07/07 12:30:23;;;;;;;4.85;1.40;;;;;;;;;;4991396;28;20544;-75
2022/07/07 12:32:49;;;;;;;3.88;1.33;;;;;;;;;;4991198;28;20089;-75
2022/07/07 12:35:34;;;;;;;4.03;1.35;;;;;;;;;;4991287;28;20434;-74
2022/07/07 12:38:02;;;;;;;2.90;1.30;;;;;;;;;;4991271;28;20144;-74
2022/07/07 12:40:33;;;;;;;4.57;1.45;;;;;;;;;;4990877;28;20397;-75
2022/07/07 12:43:10;;;;;;;3.55;1.30;;;;;;;;;;4991286;28;20085;-76
2022/07/07 12:45:36;;;;;;;2.95;1.52;;;;;;;;;;4991147;28;20019;-76
2022/07/07 12:48:02;;;;;;;4.45;1.30;;;;;;;;;;4990926;28;20494;-75
2022/07/07 12:50:27;;;;;;;2.72;1.25;;;;;;;;;;4990993;28;20034;-75
2022/07/07 12:53:05;;;;;;;3.92;1.30;;;;;;;;;;4990798;28;20022;-76
2022/07/07 12:55:39;;;;;;;4.53;1.35;;;;;;;;;;4990690;28;20038;-75
2022/07/07 12:58:25;;;;;;;4.03;1.30;;;;;;;;;;4991156;28;20026;-74
2022/07/07 13:01:04;;;;;;;3.35;1.40;;;;;;;;;;4990644;28;20030;-75
2022/07/07 13:03:31;;;;;;;5.15;1.23;;;;;;;;;;4990933;28;20490;-76
2022/07/07 13:05:58;;;;;;;3.55;1.33;;;;;;;;;;4990966;28;20038;-76
2022/07/07 13:08:24;;;;;;;3.72;1.30;;;;;;;;;;4990565;28;20037;-76
2022/07/07 13:10:50;;;;;;;4.03;1.40;;;;;;;;;;4973415;28;20475;-76
2022/07/07 13:13:16;;;;;;;3.60;1.35;;;;;;;;;;4990852;28;20529;-75
2022/07/07 13:15:42;;;;;;;3.67;1.30;;;;;;;;;;4990659;28;20041;-76
2022/07/07 13:18:08;;;;;;;5.28;1.38;;;;;;;;;;4993640;28;20031;-75
2022/07/07 13:20:33;;;;;;;5.20;1.40;;;;;;;;;;4994712;28;20030;-76
2022/07/07 13:22:59;;;;;;;2.85;1.20;;;;;;;;;;4994607;28;20061;-75
2022/07/07 13:25:24;;;;;;;2.45;1.20;;;;;;;;;;4994713;28;20395;-73
2022/07/07 13:27:50;;;;;;;3.10;1.23;;;;;;;;;;4994497;28;20022;-75
2022/07/07 13:30:16;;;;;;;4.80;1.23;;;;;;;;;;4994438;28;20129;-77
2022/07/07 13:32:43;;;;;;;3.10;1.23;;;;;;;;;;4994774;28;20109;-76
2022/07/07 13:35:10;;;;;;;2.53;1.20;;;;;;;;;;4995043;28;20030;-73
2022/07/07 13:37:35;;;;;;;3.78;1.20;;;;;;;;;;4994519;28;20030;-73
2022/07/07 13:40:01;;;;;;;3.83;1.42;;;;;;;;;;4994176;28;20026;-72
2022/07/07 13:42:26;;;;;;;3.88;1.30;;;;;;;;;;4994473;28;20101;-73
2022/07/07 13:44:52;;;;;;;4.53;1.10;;;;;;;;;;4994249;28;20023;-74
2022/07/07 13:47:17;;;;;;;3.15;1.10;;;;;;;;;;4994156;28;20022;-74
2022/07/07 13:49:43;;;;;;;4.30;1.25;;;;;;;;;;4994339;28;20027;-74
2022/07/07 13:52:09;;;;;;;4.13;1.40;;;;;;;;;;4994159;28;20402;-77
2022/07/07 13:54:36;;;;;;;2.92;1.20;;;;;;;;;;4994249;28;20073;-76
2022/07/07 13:57:01;;;;;;;6.82;1.23;;;;;;;;;;4993969;28;20050;-77
2022/07/07 13:59:27;;;;;;;4.68;1.23;;;;;;;;;;4993903;28;20033;-77
2022/07/07 14:01:52;;;;;;;4.90;1.50;;;;;;;;;;4993759;28;20037;-77
2022/07/07 14:04:17;;;;;;;2.88;1.40;;;;;;;;;;4993834;28;20057;-77
2022/07/07 14:06:43;;;;;;;3.75;1.13;;;;;;;;;;4993851;28;20064;-77
2022/07/07 14:09:08;;;;;;;7.47;1.40;;;;;;;;;;4994103;28;20475;-76
2022/07/07 14:11:34;;;;;;;5.18;1.48;;;;;;;;;;4993732;28;20492;-76
2022/07/07 14:13:59;;;;;;;6.05;1.30;;;;;;;;;;4993649;28;20030;-76
2022/07/07 14:16:25;;;;;;;3.13;1.40;;;;;;;;;;4993848;28;20025;-76
2022/07/07 14:18:50;;;;;;;4.75;1.40;;;;;;;;;;4993731;28;20033;-76
2022/07/07 14:21:15;;;;;;;2.47;1.30;;;;;;;;;;4993533;28;20030;-75
2022/07/07 14:23:42;;;;;;;3.47;1.30;;;;;;;;;;4993486;28;20073;-76
2022/07/07 14:26:08;;;;;;;6.88;1.40;;;;;;;;;;4993581;28;20018;-76
2022/07/07 14:28:34;;;;;;;3.42;1.30;;;;;;;;;;4993190;28;20022;-76
2022/07/07 14:30:59;;;;;;;6.97;1.48;;;;;;;;;;4993259;28;20033;-75
2022/07/07 14:33:25;;;;;;;2.72;1.30;;;;;;;;;;4993555;28;20022;-76
2022/07/07 14:35:50;;;;;;;3.08;1.35;;;;;;;;;;4993341;28;20018;-76
2022/07/07 14:38:16;;;;;;;4.80;1.20;;;;;;;;;;4993250;28;20026;-76
2022/07/07 14:40:41;;;;;;;4.50;1.30;;;;;;;;;;4993396;28;20022;-77
2022/07/07 14:43:07;;;;;;;4.45;1.25;;;;;;;;;;4993420;28;20126;-75
2022/07/07 14:45:33;;;;;;;4.57;1.50;;;;;;;;;;4993249;28;20053;-75